createdAt,value
2022-10-13T00:01:07.942Z,14.55
2022-10-13T00:03:36.608Z,12.20
2022-10-13T00:06:07.412Z,10.85
2022-10-13T00:08:35.506Z,19.55
2022-10-13T00:11:10.129Z,17.15
2022-10-13T00:13:37.207Z,21.52
2022-10-13T00:16:04.790Z,15.38
2022-10-13T00:18:32.385Z,23.48
2022-10-13T00:20:59.294Z,15.80
2022-10-13T00:23:26.322Z,14.90
2022-10-13T00:25:53.292Z,18.58
2022-10-13T00:28:20.617Z,17.88
2022-10-13T00:30:47.862Z,14.05
2022-10-13T00:33:15.127Z,18.08
2022-10-13T00:35:44.951Z,17.23
2022-10-13T00:38:17.328Z,18.85
2022-10-13T00:40:47.156Z,25.02
2022-10-13T00:43:40.662Z,17.98
2022-10-13T00:46:08.208Z,12.85
2022-10-13T00:48:35.081Z,16.92
2022-10-13T00:51:02.027Z,19.58
2022-10-13T00:53:34.400Z,17.27
2022-10-13T00:56:02.048Z,14.52
2022-10-13T00:58:31.735Z,17.05
2022-10-13T01:00:59.938Z,16.23
2022-10-13T01:03:27.413Z,14.43
2022-10-13T01:05:58.919Z,13.73
2022-10-13T01:08:27.095Z,20.33
2022-10-13T01:11:39.568Z,22.60
2022-10-13T01:15:26.548Z,15.40
2022-10-13T01:18:18.058Z,12.95
2022-10-13T01:21:02.452Z,15.65
2022-10-13T01:24:02.631Z,17.57
2022-10-13T01:26:57.184Z,19.25
2022-10-13T01:30:08.614Z,14.57
2022-10-13T01:33:18.527Z,16.98
2022-10-13T01:36:07.199Z,17.17
2022-10-13T01:38:41.511Z,15.45
2022-10-13T01:41:52.722Z,19.52
2022-10-13T01:44:35.859Z,15.57
2022-10-13T01:47:04.238Z,18.65
2022-10-13T01:49:34.992Z,22.80
2022-10-13T01:52:13.547Z,15.13
2022-10-13T01:54:40.640Z,24.13
2022-10-13T01:57:39.596Z,13.77
2022-10-13T02:00:13.504Z,17.27
2022-10-13T02:03:06.530Z,14.63
2022-10-13T02:05:49.268Z,13.52
2022-10-13T02:08:44.591Z,18.45
2022-10-13T02:11:16.755Z,15.77
2022-10-13T02:13:51.395Z,13.30
2022-10-13T02:16:23.664Z,14.50
2022-10-13T02:18:51.427Z,14.02
2022-10-13T02:21:19.904Z,19.90
2022-10-13T02:23:47.406Z,15.70
2022-10-13T02:26:14.533Z,15.40
2022-10-13T02:28:41.918Z,19.10
2022-10-13T02:31:09.581Z,15.65
2022-10-13T02:33:36.630Z,18.05
2022-10-13T02:36:03.901Z,18.10
2022-10-13T02:38:30.938Z,24.52
2022-10-13T02:40:57.961Z,11.55
2022-10-13T02:43:24.894Z,15.75
2022-10-13T02:45:51.869Z,18.55
2022-10-13T02:48:18.749Z,14.52
2022-10-13T02:50:47.554Z,15.65
2022-10-13T02:53:14.484Z,15.75
2022-10-13T02:55:41.655Z,15.23
2022-10-13T02:58:08.606Z,24.80
2022-10-13T03:00:35.548Z,17.27
2022-10-13T03:03:02.629Z,21.38
2022-10-13T03:05:29.530Z,16.23
2022-10-13T03:07:56.387Z,17.23
2022-10-13T03:10:23.442Z,19.13
2022-10-13T03:12:51.933Z,13.32
2022-10-13T03:15:18.862Z,14.55
2022-10-13T03:17:46.922Z,16.92
2022-10-13T03:20:13.810Z,15.50
2022-10-13T03:22:40.941Z,17.80
2022-10-13T03:25:08.637Z,18.13
2022-10-13T03:27:36.220Z,17.58
2022-10-13T03:30:04.180Z,14.93
2022-10-13T03:32:32.874Z,17.02
2022-10-13T03:35:00.276Z,15.50
2022-10-13T03:37:30.845Z,16.92
2022-10-13T03:39:57.771Z,14.18
2022-10-13T03:42:24.667Z,14.55
2022-10-13T03:44:56.064Z,15.57
2022-10-13T03:47:23.573Z,17.55
2022-10-13T03:49:50.464Z,17.77
2022-10-13T03:52:17.604Z,17.58
2022-10-13T03:54:45.866Z,19.63
2022-10-13T03:57:12.725Z,19.27
2022-10-13T03:59:41.494Z,18.23
2022-10-13T04:02:09.069Z,18.60
2022-10-13T04:04:38.396Z,14.40
2022-10-13T04:07:07.561Z,17.48
2022-10-13T04:09:35.002Z,14.60
2022-10-13T04:12:01.910Z,17.73
2022-10-13T04:14:29.019Z,22.90
2022-10-13T04:17:02.167Z,17.92
2022-10-13T04:19:29.026Z,22.33
2022-10-13T04:21:55.923Z,19.25
2022-10-13T04:24:22.886Z,21.60
2022-10-13T04:26:50.153Z,18.38
2022-10-13T04:29:17.075Z,16.20
2022-10-13T04:31:44.483Z,13.65
2022-10-13T04:34:12.176Z,13.13
2022-10-13T04:36:39.143Z,11.93
2022-10-13T04:39:06.052Z,23.05
2022-10-13T04:41:33.398Z,15.73
2022-10-13T04:44:02.488Z,17.05
2022-10-13T04:46:29.540Z,15.02
2022-10-13T04:48:57.072Z,18.05
2022-10-13T04:51:29.557Z,21.23
2022-10-13T04:53:59.097Z,16.02
2022-10-13T04:56:27.151Z,17.38
2022-10-13T04:58:54.390Z,16.15
2022-10-13T05:01:24.922Z,20.60
2022-10-13T05:03:58.986Z,17.42
2022-10-13T05:06:30.130Z,16.88
2022-10-13T05:08:57.593Z,21.75
2022-10-13T05:11:29.404Z,30.88
2022-10-13T05:13:57.775Z,20.52
2022-10-13T05:16:25.838Z,19.42
2022-10-13T05:18:54.584Z,20.25
2022-10-13T05:21:27.917Z,20.88
2022-10-13T05:23:56.622Z,19.00
2022-10-13T05:26:31.943Z,20.50
2022-10-13T05:29:01.739Z,19.13
2022-10-13T05:31:34.167Z,21.02
2022-10-13T05:34:01.321Z,21.67
2022-10-13T05:36:33.158Z,17.77
2022-10-13T05:39:07.622Z,17.23
2022-10-13T05:41:34.521Z,18.02
2022-10-13T05:44:08.733Z,21.10
2022-10-13T05:46:42.200Z,24.23
2022-10-13T05:49:09.122Z,16.65
2022-10-13T05:51:41.989Z,20.77
2022-10-13T05:54:30.162Z,21.77
2022-10-13T05:57:05.165Z,22.25
2022-10-13T05:59:38.700Z,21.88
2022-10-13T06:02:10.171Z,20.95
2022-10-13T06:04:45.976Z,21.67
2022-10-13T06:07:14.363Z,17.70
2022-10-13T06:09:42.255Z,18.80
2022-10-13T06:12:10.459Z,21.23
2022-10-13T06:14:37.746Z,18.20
2022-10-13T06:17:08.448Z,17.27
2022-10-13T06:19:37.437Z,20.60
2022-10-13T06:22:08.387Z,19.48
2022-10-13T06:24:35.332Z,19.00
2022-10-13T06:27:04.692Z,21.58
2022-10-13T06:29:33.370Z,18.38
2022-10-13T06:32:00.267Z,20.70
2022-10-13T06:34:27.266Z,18.80
2022-10-13T06:36:54.523Z,24.63
2022-10-13T06:39:21.538Z,31.50
2022-10-13T06:41:50.046Z,21.75
2022-10-13T06:44:16.965Z,17.30
2022-10-13T06:46:43.877Z,19.05
2022-10-13T06:49:10.774Z,21.77
2022-10-13T06:51:38.068Z,19.67
2022-10-13T06:54:04.961Z,16.92
2022-10-13T06:56:33.916Z,21.27
2022-10-13T06:59:05.507Z,16.77
2022-10-13T07:01:36.730Z,18.67
2022-10-13T07:04:10.534Z,17.50
2022-10-13T07:06:37.380Z,16.35
2022-10-13T07:09:08.359Z,20.98
2022-10-13T07:11:35.868Z,25.40
2022-10-13T07:14:03.211Z,21.67
2022-10-13T07:16:30.240Z,17.13
2022-10-13T07:18:57.308Z,18.98
2022-10-13T07:21:24.547Z,22.75
2022-10-13T07:23:51.594Z,18.33
2022-10-13T07:26:18.542Z,21.75
2022-10-13T07:28:46.127Z,23.95
2022-10-13T07:31:19.099Z,16.58
2022-10-13T07:33:49.109Z,20.63
2022-10-13T07:36:18.509Z,17.50
2022-10-13T07:38:46.648Z,20.83
2022-10-13T07:41:14.490Z,19.45
2022-10-13T07:43:42.252Z,14.82
2022-10-13T07:46:11.020Z,16.63
2022-10-13T07:48:38.198Z,18.98
2022-10-13T07:51:11.615Z,16.92
2022-10-13T07:53:40.119Z,21.17
2022-10-13T07:56:10.672Z,18.92
2022-10-13T07:58:39.998Z,19.55
2022-10-13T08:01:06.997Z,17.75
2022-10-13T08:03:40.969Z,21.40
2022-10-13T08:06:14.376Z,21.02
2022-10-13T08:08:41.500Z,19.85
2022-10-13T08:11:16.528Z,19.70
2022-10-13T08:13:51.475Z,19.90
2022-10-13T08:16:21.475Z,16.67
2022-10-13T08:18:49.089Z,19.30
2022-10-13T08:24:17.500Z,16.17
2022-10-13T08:26:46.385Z,19.23
2022-10-13T08:29:22.069Z,20.95
2022-10-13T08:31:52.451Z,16.65
2022-10-13T08:34:20.325Z,23.20
2022-10-13T08:36:47.463Z,24.83
2022-10-13T08:39:14.554Z,21.38
2022-10-13T08:41:44.174Z,28.85
2022-10-13T08:47:35.679Z,25.67
2022-10-13T08:50:15.923Z,26.33
2022-10-13T08:52:58.417Z,29.17
2022-10-13T08:55:40.203Z,26.67
2022-10-13T08:58:15.812Z,25.58
2022-10-13T09:00:42.712Z,28.95
2022-10-13T09:03:29.052Z,25.67
2022-10-13T09:06:14.911Z,21.65
2022-10-13T09:08:51.680Z,25.98
2022-10-13T09:11:18.679Z,24.98
2022-10-13T09:13:46.128Z,26.23
2022-10-13T09:16:13.138Z,20.77
2022-10-13T09:18:40.586Z,29.55
2022-10-13T09:21:25.163Z,27.90
2022-10-13T09:23:54.210Z,24.55
2022-10-13T09:26:25.589Z,32.00
2022-10-13T09:28:53.170Z,26.90
2022-10-13T09:31:27.024Z,24.75
2022-10-13T09:34:03.686Z,24.08
2022-10-13T09:36:31.346Z,25.10
2022-10-13T09:39:17.105Z,26.58
2022-10-13T09:41:44.944Z,30.58
2022-10-13T09:44:37.093Z,24.77
2022-10-13T09:47:04.857Z,23.45
2022-10-13T09:49:39.833Z,23.52
2022-10-13T09:52:19.568Z,21.25
2022-10-13T09:55:01.023Z,23.88
2022-10-13T09:57:48.564Z,23.58
2022-10-13T10:00:28.773Z,25.15
2022-10-13T10:03:27.781Z,18.25
2022-10-13T10:06:01.235Z,20.77
2022-10-13T10:09:03.114Z,14.32
2022-10-13T10:11:40.818Z,23.27
2022-10-13T10:14:28.171Z,14.68
2022-10-13T10:17:38.164Z,18.65
2022-10-13T10:20:32.427Z,18.70
2022-10-13T10:23:26.942Z,18.35
2022-10-13T10:26:13.452Z,12.63
2022-10-13T10:29:24.253Z,18.70
2022-10-13T10:32:32.302Z,15.55
2022-10-13T10:35:05.254Z,15.43
2022-10-13T10:37:58.001Z,20.15
2022-10-13T10:40:56.622Z,18.83
2022-10-13T10:43:43.360Z,21.30
2022-10-13T10:46:18.498Z,14.70
2022-10-13T10:48:50.262Z,14.18
2022-10-13T10:51:18.734Z,15.85
2022-10-13T10:54:21.739Z,19.85
2022-10-13T10:57:04.610Z,17.50
2022-10-13T11:00:13.076Z,18.15
2022-10-13T11:02:47.529Z,15.82
2022-10-13T11:05:15.700Z,17.27
2022-10-13T11:07:43.074Z,15.32
2022-10-13T11:10:18.660Z,16.15
2022-10-13T11:15:51.135Z,18.90
2022-10-13T11:18:59.010Z,17.40
2022-10-13T11:21:59.709Z,14.88
2022-10-13T11:24:41.544Z,28.70
2022-10-13T11:27:16.782Z,19.25
2022-10-13T11:29:51.532Z,14.85
2022-10-13T11:32:36.194Z,14.60
2022-10-13T11:35:06.487Z,20.00
2022-10-13T11:38:43.994Z,19.48
2022-10-13T11:41:27.408Z,15.68
2022-10-13T11:44:17.051Z,17.98
2022-10-13T11:47:18.228Z,14.88
2022-10-13T11:50:22.656Z,16.75
2022-10-13T11:53:12.193Z,21.50
2022-10-13T11:55:57.160Z,25.70
2022-10-13T11:58:33.116Z,19.27
2022-10-13T12:01:07.158Z,22.77
2022-10-13T12:03:44.674Z,24.02
2022-10-13T12:06:34.915Z,21.23
2022-10-13T12:09:06.727Z,20.83
2022-10-13T12:11:37.927Z,22.35
2022-10-13T12:14:28.638Z,19.48
2022-10-13T12:16:58.550Z,24.88
2022-10-13T12:19:29.859Z,21.13
2022-10-13T12:22:01.650Z,24.70
2022-10-13T12:24:31.026Z,25.05
2022-10-13T12:26:59.091Z,23.85
2022-10-13T12:29:30.249Z,32.15
2022-10-13T12:32:00.445Z,21.67
2022-10-13T12:34:35.035Z,26.65
2022-10-13T12:37:15.750Z,25.77
2022-10-13T12:39:43.535Z,26.48
2022-10-13T12:42:14.960Z,27.98
2022-10-13T12:44:42.381Z,27.95
2022-10-13T12:47:42.699Z,30.50
2022-10-13T12:50:27.440Z,31.50
2022-10-13T12:53:13.851Z,24.05
2022-10-13T12:56:28.923Z,31.35
2022-10-13T12:58:57.448Z,26.15
2022-10-13T13:01:35.424Z,25.63
2022-10-13T13:04:28.604Z,28.00
2022-10-13T13:07:05.119Z,27.58
2022-10-13T13:09:41.282Z,30.58
2022-10-13T13:12:10.999Z,29.35
2022-10-13T13:14:41.922Z,32.55
2022-10-13T13:17:45.741Z,28.85
2022-10-13T13:20:40.125Z,27.58
2022-10-13T13:23:07.098Z,28.35
2022-10-13T13:25:34.001Z,32.35
2022-10-13T13:28:10.094Z,30.55
2022-10-13T13:33:03.998Z,27.45
2022-10-13T13:35:31.877Z,24.77
2022-10-13T13:37:58.868Z,22.77
2022-10-13T13:40:28.138Z,25.75
2022-10-13T13:42:55.302Z,29.90
2022-10-13T13:45:25.549Z,26.60
2022-10-13T13:47:57.987Z,27.13
2022-10-13T13:50:34.238Z,25.90
2022-10-13T13:53:01.467Z,26.20
2022-10-13T13:55:30.119Z,26.90
2022-10-13T13:57:58.707Z,28.63
2022-10-13T14:00:25.767Z,23.02
2022-10-13T14:02:57.344Z,27.75
2022-10-13T14:05:24.764Z,22.65
2022-10-13T14:07:55.178Z,23.98
2022-10-13T14:10:22.253Z,24.48
2022-10-13T14:12:49.143Z,23.08
2022-10-13T14:15:17.085Z,26.80
2022-10-13T14:17:44.514Z,27.83
2022-10-13T14:20:11.869Z,25.50
2022-10-13T14:22:39.434Z,21.98
2022-10-13T14:25:08.253Z,28.42
2022-10-13T14:27:36.735Z,26.67
2022-10-13T14:30:06.920Z,25.85
2022-10-13T14:32:36.287Z,22.88
2022-10-13T14:35:04.680Z,29.10
2022-10-13T14:37:33.570Z,25.33
2022-10-13T14:40:00.825Z,26.17
2022-10-13T14:42:28.026Z,24.95
2022-10-13T14:44:55.028Z,22.90
2022-10-13T14:47:22.960Z,24.17
2022-10-13T14:49:50.424Z,24.90
2022-10-13T14:52:17.263Z,28.00
2022-10-13T14:54:45.163Z,25.42
2022-10-13T14:57:16.395Z,26.02
2022-10-13T14:59:43.812Z,23.35
2022-10-13T15:02:11.899Z,21.92
2022-10-13T15:04:45.343Z,25.50
2022-10-13T15:07:12.203Z,22.15
2022-10-13T15:09:52.339Z,25.70
2022-10-13T15:12:25.950Z,24.77
2022-10-13T15:14:52.797Z,28.13
2022-10-13T15:17:19.745Z,29.77
2022-10-13T15:19:46.701Z,23.83
2022-10-13T15:22:13.676Z,21.45
2022-10-13T15:24:40.898Z,25.65
2022-10-13T15:27:08.061Z,20.52
2022-10-13T15:29:34.963Z,29.50
2022-10-13T15:32:18.749Z,22.90
2022-10-13T15:34:50.742Z,27.00
2022-10-13T15:37:17.692Z,24.27
2022-10-13T15:39:44.848Z,25.20
2022-10-13T15:42:12.189Z,23.65
2022-10-13T15:47:25.868Z,23.77
2022-10-13T15:49:52.753Z,26.10
2022-10-13T15:52:20.109Z,24.63
2022-10-13T15:54:51.306Z,27.50
2022-10-13T15:57:18.474Z,23.13
2022-10-13T15:59:45.485Z,28.17
2022-10-13T16:02:12.835Z,32.05
2022-10-13T16:04:40.101Z,26.65
2022-10-13T16:07:07.331Z,24.35
2022-10-13T16:09:34.473Z,23.08
2022-10-13T16:12:01.675Z,24.98
2022-10-13T16:14:28.609Z,24.15
2022-10-13T16:16:58.412Z,29.30
2022-10-13T16:19:25.615Z,24.80
2022-10-13T16:21:52.933Z,29.70
2022-10-13T16:24:20.008Z,23.90
2022-10-13T16:26:46.897Z,22.33
2022-10-13T16:29:13.977Z,24.23
2022-10-13T16:31:40.937Z,27.48
2022-10-13T16:34:07.769Z,26.50
2022-10-13T16:36:34.724Z,28.10
2022-10-13T16:39:01.582Z,22.77
2022-10-13T16:41:28.440Z,25.65
2022-10-13T16:43:55.491Z,27.13
2022-10-13T16:46:22.424Z,28.05
2022-10-13T16:48:49.346Z,31.98
2022-10-13T16:51:23.339Z,27.25
2022-10-13T16:53:53.508Z,31.83
2022-10-13T16:56:22.662Z,30.52
2022-10-13T16:58:53.037Z,33.83
2022-10-13T17:01:21.229Z,34.22
2022-10-13T17:03:50.289Z,30.40
2022-10-13T17:06:19.899Z,34.30
2022-10-13T17:08:53.415Z,32.05
2022-10-13T17:11:24.249Z,30.52
2022-10-13T17:13:51.707Z,29.27
2022-10-13T17:16:19.824Z,30.23
2022-10-13T17:18:47.108Z,29.85
2022-10-13T17:21:17.218Z,30.83
2022-10-13T17:23:48.633Z,27.75
2022-10-13T17:26:18.125Z,32.35
2022-10-13T17:28:45.860Z,30.80
2022-10-13T17:31:22.539Z,32.42
2022-10-13T17:33:50.267Z,34.72
2022-10-13T17:36:27.104Z,33.80
2022-10-13T17:38:56.357Z,33.03
2022-10-13T17:41:24.499Z,38.35
2022-10-13T17:43:52.097Z,29.77
2022-10-13T17:46:36.875Z,29.90
2022-10-13T17:51:32.849Z,30.27
2022-10-13T17:54:00.949Z,28.85
2022-10-13T17:56:29.058Z,33.85
2022-10-13T17:58:56.748Z,32.33
2022-10-13T18:01:32.758Z,30.00
2022-10-13T18:04:07.392Z,33.90
2022-10-13T18:06:39.910Z,35.80
2022-10-13T18:09:10.536Z,36.40
2022-10-13T18:11:38.461Z,33.28
2022-10-13T18:14:06.260Z,35.42
2022-10-13T18:16:34.287Z,41.97
2022-10-13T18:19:01.242Z,35.25
2022-10-13T18:21:29.390Z,31.65
2022-10-13T18:23:59.788Z,33.95
2022-10-13T18:26:32.092Z,39.08
2022-10-13T18:28:59.078Z,35.95
2022-10-13T18:31:29.616Z,43.22
2022-10-13T18:34:10.573Z,39.45
2022-10-13T18:36:50.283Z,42.00
2022-10-13T18:39:27.712Z,41.10
2022-10-13T18:41:57.059Z,46.80
2022-10-13T18:44:33.988Z,36.42
2022-10-13T18:47:01.086Z,42.47
2022-10-13T18:49:31.330Z,42.22
2022-10-13T18:52:02.047Z,39.47
2022-10-13T18:54:30.474Z,42.65
2022-10-13T18:56:57.592Z,40.28
2022-10-13T18:59:24.539Z,42.38
2022-10-13T19:01:52.020Z,38.58
2022-10-13T19:04:19.245Z,41.15
2022-10-13T19:06:46.632Z,40.70
2022-10-13T19:09:17.307Z,42.03
2022-10-13T19:11:44.717Z,39.72
2022-10-13T19:14:14.367Z,40.92
2022-10-13T19:16:43.652Z,41.00
2022-10-13T19:19:11.387Z,41.78
2022-10-13T19:21:39.550Z,36.25
2022-10-13T19:24:09.700Z,46.22
2022-10-13T19:26:37.704Z,40.78
2022-10-13T19:29:14.027Z,43.53
2022-10-13T19:31:42.564Z,42.95
2022-10-13T19:34:11.665Z,44.38
2022-10-13T19:36:45.429Z,42.83
2022-10-13T19:39:20.465Z,46.60
2022-10-13T19:41:49.599Z,51.95
2022-10-13T19:44:18.303Z,46.13
2022-10-13T19:46:47.005Z,47.30
2022-10-13T19:49:17.109Z,33.72
2022-10-13T19:51:46.059Z,36.03
2022-10-13T19:54:13.674Z,32.97
2022-10-13T19:56:46.124Z,34.88
2022-10-13T19:59:14.327Z,34.55
2022-10-13T20:01:41.708Z,34.05
2022-10-13T20:04:14.349Z,34.05
2022-10-13T20:06:44.039Z,33.97
2022-10-13T20:09:11.227Z,34.50
2022-10-13T20:11:38.305Z,35.80
2022-10-13T20:14:05.474Z,34.58
2022-10-13T20:16:32.854Z,38.40
2022-10-13T20:19:00.891Z,39.17
2022-10-13T20:21:28.861Z,43.55
2022-10-13T20:23:56.852Z,39.65
2022-10-13T20:26:24.834Z,47.03
2022-10-13T20:28:53.935Z,41.72
2022-10-13T20:31:22.147Z,45.30
2022-10-13T20:33:53.834Z,39.15
2022-10-13T20:36:21.227Z,45.90
2022-10-13T20:38:49.238Z,41.47
2022-10-13T20:41:26.699Z,39.30
2022-10-13T20:43:55.736Z,45.15
2022-10-13T20:46:26.441Z,43.03
2022-10-13T20:49:11.986Z,40.03
2022-10-13T20:51:41.659Z,39.80
2022-10-13T20:54:09.723Z,32.90
2022-10-13T20:56:36.724Z,39.03
2022-10-13T20:59:07.654Z,30.40
2022-10-13T21:01:35.322Z,32.08
2022-10-13T21:04:02.801Z,28.98
2022-10-13T21:06:29.964Z,30.38
2022-10-13T21:09:00.439Z,26.85
2022-10-13T21:11:27.499Z,25.20
2022-10-13T21:13:54.652Z,24.20
2022-10-13T21:16:27.177Z,23.92
2022-10-13T21:18:56.667Z,22.80
2022-10-13T21:21:27.833Z,23.90
2022-10-13T21:23:57.875Z,23.65
2022-10-13T21:26:27.077Z,22.73
2022-10-13T21:28:54.033Z,22.10
2022-10-13T21:31:22.970Z,22.10
2022-10-13T21:33:50.528Z,28.17
2022-10-13T21:36:21.249Z,21.38
2022-10-13T21:38:53.369Z,23.13
2022-10-13T21:41:21.165Z,21.20
2022-10-13T21:43:49.578Z,24.52
2022-10-13T21:46:25.419Z,22.23
2022-10-13T21:48:58.567Z,27.80
2022-10-13T21:51:29.615Z,22.70
2022-10-13T21:54:03.640Z,21.55
2022-10-13T21:56:31.894Z,24.90
2022-10-13T21:58:59.421Z,25.90
2022-10-13T22:01:26.875Z,20.88
2022-10-13T22:03:59.698Z,20.48
2022-10-13T22:06:28.662Z,24.80
2022-10-13T22:08:58.553Z,24.83
2022-10-13T22:11:29.845Z,22.50
2022-10-13T22:13:58.198Z,21.65
2022-10-13T22:16:33.480Z,20.67
2022-10-13T22:19:00.507Z,24.77
2022-10-13T22:21:36.450Z,24.42
2022-10-13T22:24:06.317Z,25.70
2022-10-13T22:26:36.505Z,24.00
2022-10-13T22:29:05.995Z,27.33
2022-10-13T22:31:33.677Z,26.20
2022-10-13T22:34:07.834Z,26.48
2022-10-13T22:36:34.804Z,26.38
2022-10-13T22:39:04.434Z,25.98
2022-10-13T22:41:33.515Z,26.35
2022-10-13T22:44:01.846Z,26.20
2022-10-13T22:46:35.232Z,26.83
2022-10-13T22:49:03.997Z,28.30
2022-10-13T22:51:33.361Z,25.83
2022-10-13T22:54:00.522Z,28.13
2022-10-13T22:56:31.066Z,27.40
2022-10-13T22:59:06.033Z,35.67
2022-10-13T23:01:33.655Z,40.80
2022-10-13T23:04:00.970Z,39.47
2022-10-13T23:06:31.098Z,37.72
2022-10-13T23:09:04.500Z,39.28
2022-10-13T23:11:31.667Z,43.03
2022-10-13T23:14:01.663Z,40.05
2022-10-13T23:16:30.009Z,38.22
2022-10-13T23:18:56.947Z,43.92
2022-10-13T23:21:28.060Z,47.40
2022-10-13T23:24:01.393Z,42.20
2022-10-13T23:26:29.281Z,47.13
2022-10-13T23:29:10.945Z,50.45
2022-10-13T23:31:37.815Z,42.67
2022-10-13T23:34:04.954Z,52.38
2022-10-13T23:36:32.822Z,45.83
2022-10-13T23:39:05.548Z,50.53
2022-10-13T23:41:32.892Z,51.22
2022-10-13T23:44:00.296Z,56.58
2022-10-13T23:46:27.770Z,56.55
2022-10-13T23:48:54.907Z,51.08
2022-10-13T23:51:25.029Z,47.78
2022-10-13T23:53:52.714Z,50.40
2022-10-13T23:56:20.302Z,48.85
2022-10-13T23:58:47.878Z,46.75
